createdAt,value
2022-10-25T00:02:17.284Z,100079.00
2022-10-25T00:04:45.851Z,100073.81
2022-10-25T00:07:15.202Z,100072.97
2022-10-25T00:09:43.043Z,100069.56
2022-10-25T00:12:10.588Z,100077.28
2022-10-25T00:14:38.167Z,100073.81
2022-10-25T00:17:05.738Z,100076.44
2022-10-25T00:19:33.254Z,100085.97
2022-10-25T00:22:00.853Z,100079.94
2022-10-25T00:24:29.776Z,100087.75
2022-10-25T00:26:57.328Z,100086.94
2022-10-25T00:29:25.068Z,100083.50
2022-10-25T00:31:52.631Z,100083.50
2022-10-25T00:34:20.156Z,100088.66
2022-10-25T00:36:47.644Z,100085.28
2022-10-25T00:39:15.171Z,100082.69
2022-10-25T00:41:44.027Z,100089.53
2022-10-25T00:44:47.777Z,100077.47
2022-10-25T00:47:19.938Z,100080.13
2022-10-25T00:49:50.300Z,100085.28
2022-10-25T00:52:17.980Z,100079.31
2022-10-25T00:54:49.913Z,100081.00
2022-10-25T00:57:23.070Z,100080.97
2022-10-25T00:59:51.212Z,100071.38
2022-10-25T01:02:20.832Z,100079.94
2022-10-25T01:04:48.562Z,100086.84
2022-10-25T01:07:16.127Z,100080.06
2022-10-25T01:09:44.536Z,100081.81
2022-10-25T01:12:12.316Z,100075.78
2022-10-25T01:14:45.660Z,100082.69
2022-10-25T01:17:19.331Z,100088.69
2022-10-25T01:20:04.984Z,100079.31
2022-10-25T01:22:39.434Z,100087.03
2022-10-25T01:25:32.344Z,100085.34
2022-10-25T01:28:07.626Z,100085.44
2022-10-25T01:31:22.874Z,100085.44
2022-10-25T01:33:58.001Z,100095.66
2022-10-25T01:36:36.935Z,100087.03
2022-10-25T01:39:11.147Z,100090.50
2022-10-25T01:41:48.683Z,100094.88
2022-10-25T01:44:31.235Z,100085.44
2022-10-25T01:47:03.712Z,100076.94
2022-10-25T01:49:38.349Z,100076.06
2022-10-25T01:52:05.921Z,100093.31
2022-10-25T01:54:33.622Z,100086.38
2022-10-25T01:57:18.441Z,100089.00
2022-10-25T02:00:08.736Z,100088.16
2022-10-25T02:02:55.362Z,100082.25
2022-10-25T02:05:28.529Z,100080.56
2022-10-25T02:08:04.232Z,100086.69
2022-10-25T02:10:36.780Z,100086.69
2022-10-25T02:13:15.469Z,100084.09
2022-10-25T02:15:50.820Z,100087.47
2022-10-25T02:18:23.439Z,100087.47
2022-10-25T02:20:55.700Z,100085.72
2022-10-25T02:23:24.712Z,100082.28
2022-10-25T02:25:53.293Z,100080.56
2022-10-25T02:28:24.876Z,100077.13
2022-10-25T02:30:54.872Z,100073.63
2022-10-25T02:33:22.407Z,100077.16
2022-10-25T02:36:13.405Z,100070.34
2022-10-25T02:38:42.066Z,100077.94
2022-10-25T02:41:09.800Z,100074.50
2022-10-25T02:43:37.473Z,100076.25
2022-10-25T02:46:09.563Z,100070.16
2022-10-25T02:48:37.631Z,100083.97
2022-10-25T02:51:06.075Z,100076.28
2022-10-25T02:53:35.987Z,100069.41
2022-10-25T02:56:04.744Z,100080.72
2022-10-25T02:58:34.666Z,100086.81
2022-10-25T03:01:02.763Z,100085.16
2022-10-25T03:03:31.181Z,100094.69
2022-10-25T03:05:59.642Z,100086.13
2022-10-25T03:11:02.155Z,100087.88
2022-10-25T03:13:29.705Z,100083.63
2022-10-25T03:15:57.219Z,100091.50
2022-10-25T03:18:24.730Z,100089.94
2022-10-25T03:20:53.031Z,100084.88
2022-10-25T03:23:20.553Z,100085.94
2022-10-25T03:25:49.755Z,100085.66
2022-10-25T03:28:20.966Z,100094.34
2022-10-25T03:30:48.817Z,100092.66
2022-10-25T03:33:16.984Z,100089.25
2022-10-25T03:35:44.552Z,100091.03
2022-10-25T03:38:12.379Z,100087.72
2022-10-25T03:40:39.875Z,100086.06
2022-10-25T03:43:07.463Z,100094.75
2022-10-25T03:45:36.465Z,100093.03
2022-10-25T03:48:03.995Z,100098.25
2022-10-25T03:50:31.564Z,100098.25
2022-10-25T03:52:59.229Z,100099.13
2022-10-25T03:55:26.822Z,100099.00
2022-10-25T03:57:54.412Z,100106.69
2022-10-25T04:00:22.288Z,100104.81
2022-10-25T04:02:59.393Z,100106.50
2022-10-25T04:05:29.677Z,100108.97
2022-10-25T04:07:57.228Z,100111.44
2022-10-25T04:10:25.365Z,100112.13
2022-10-25T04:12:54.616Z,100113.56
2022-10-25T04:15:23.557Z,100108.22
2022-10-25T04:17:51.588Z,100107.16
2022-10-25T04:20:21.275Z,100102.84
2022-10-25T04:22:54.763Z,100108.78
2022-10-25T04:25:22.429Z,100110.44
2022-10-25T04:27:50.095Z,100112.91
2022-10-25T04:30:17.906Z,100109.47
2022-10-25T04:32:45.711Z,100110.31
2022-10-25T04:35:13.636Z,100110.34
2022-10-25T04:37:42.506Z,100119.03
2022-10-25T04:40:11.813Z,100114.72
2022-10-25T04:42:39.396Z,100122.41
2022-10-25T04:45:07.662Z,100117.31
2022-10-25T04:47:35.307Z,100118.19
2022-10-25T04:50:02.840Z,100108.72
2022-10-25T04:52:30.870Z,100121.75
2022-10-25T04:55:00.135Z,100115.88
2022-10-25T04:57:27.655Z,100114.13
2022-10-25T04:59:57.469Z,100112.38
2022-10-25T05:02:25.258Z,100118.41
2022-10-25T05:04:52.805Z,100115.81
2022-10-25T05:07:20.828Z,100114.13
2022-10-25T05:09:48.437Z,100110.69
2022-10-25T05:12:17.300Z,100114.13
2022-10-25T05:14:44.952Z,100125.34
2022-10-25T05:17:12.553Z,100120.19
2022-10-25T05:19:40.128Z,100124.47
2022-10-25T05:22:07.672Z,100121.03
2022-10-25T05:24:35.220Z,100116.75
2022-10-25T05:27:02.822Z,100123.63
2022-10-25T05:29:31.793Z,100120.13
2022-10-25T05:31:59.696Z,100125.34
2022-10-25T05:34:27.276Z,100127.09
2022-10-25T05:36:54.850Z,100128.88
2022-10-25T05:39:22.409Z,100131.53
2022-10-25T05:41:50.588Z,100133.28
2022-10-25T05:44:18.232Z,100144.47
2022-10-25T05:46:47.308Z,100141.88
2022-10-25T05:49:15.077Z,100133.19
2022-10-25T05:51:42.708Z,100136.56
2022-10-25T05:54:12.532Z,100146.91
2022-10-25T05:56:40.487Z,100151.22
2022-10-25T05:59:10.106Z,100154.72
2022-10-25T06:01:39.140Z,100155.63
2022-10-25T06:04:08.980Z,100156.47
2022-10-25T06:06:37.101Z,100153.97
2022-10-25T06:09:06.002Z,100159.13
2022-10-25T06:11:34.223Z,100161.69
2022-10-25T06:14:01.948Z,100176.47
2022-10-25T06:16:29.746Z,100164.50
2022-10-25T06:18:57.438Z,100171.38
2022-10-25T06:21:28.553Z,100174.91
2022-10-25T06:23:57.156Z,100171.47
2022-10-25T06:26:27.200Z,100175.28
2022-10-25T06:28:56.292Z,100190.19
2022-10-25T06:31:24.493Z,100194.78
2022-10-25T06:33:52.606Z,100192.44
2022-10-25T06:36:22.107Z,100200.28
2022-10-25T06:38:51.578Z,100201.94
2022-10-25T06:41:21.256Z,100201.13
2022-10-25T06:43:49.420Z,100208.03
2022-10-25T06:46:22.439Z,100205.44
2022-10-25T06:48:50.388Z,100205.38
2022-10-25T06:51:18.058Z,100201.03
2022-10-25T06:53:45.730Z,100209.69
2022-10-25T06:56:15.520Z,100217.44
2022-10-25T06:58:43.513Z,100215.78
2022-10-25T07:01:13.137Z,100214.06
2022-10-25T07:03:41.045Z,100217.59
2022-10-25T07:06:10.816Z,100215.03
2022-10-25T07:08:40.332Z,100220.34
2022-10-25T07:11:09.821Z,100221.28
2022-10-25T07:13:38.757Z,100217.97
2022-10-25T07:16:08.243Z,100216.25
2022-10-25T07:18:36.915Z,100218.19
2022-10-25T07:21:06.401Z,100226.81
2022-10-25T07:23:35.125Z,100221.66
2022-10-25T07:26:02.792Z,100223.53
2022-10-25T07:28:30.593Z,100226.16
2022-10-25T07:30:59.635Z,100227.06
2022-10-25T07:33:27.433Z,100224.56
2022-10-25T07:36:11.507Z,100230.72
2022-10-25T07:38:39.805Z,100230.91
2022-10-25T07:41:07.896Z,100229.31
2022-10-25T07:43:35.715Z,100229.41
2022-10-25T07:46:05.316Z,100232.16
2022-10-25T07:48:33.352Z,100234.84
2022-10-25T07:51:04.667Z,100234.91
2022-10-25T07:53:32.510Z,100230.78
2022-10-25T07:56:00.234Z,100233.50
2022-10-25T07:58:27.912Z,100235.22
2022-10-25T08:01:02.645Z,100238.78
2022-10-25T08:03:32.593Z,100240.56
2022-10-25T08:06:00.991Z,100237.16
2022-10-25T08:08:29.018Z,100237.19
2022-10-25T08:10:57.658Z,100241.56
2022-10-25T08:13:25.408Z,100244.19
2022-10-25T08:15:53.886Z,100247.69
2022-10-25T08:18:21.875Z,100252.91
2022-10-25T08:21:06.480Z,100257.28
2022-10-25T08:23:34.358Z,100252.97
2022-10-25T08:26:02.580Z,100262.63
2022-10-25T08:28:31.693Z,100259.16
2022-10-25T08:31:00.827Z,100254.88
2022-10-25T08:33:28.986Z,100260.09
2022-10-25T08:36:01.008Z,100267.13
2022-10-25T08:38:28.677Z,100265.44
2022-10-25T08:41:04.259Z,100262.84
2022-10-25T08:44:08.525Z,100264.59
2022-10-25T08:46:39.035Z,100267.22
2022-10-25T08:49:14.290Z,100270.72
2022-10-25T08:51:46.116Z,100271.59
2022-10-25T08:54:24.229Z,100275.94
2022-10-25T08:57:14.305Z,100272.47
2022-10-25T08:59:46.479Z,100280.31
2022-10-25T09:02:20.298Z,100279.47
2022-10-25T09:04:48.207Z,100283.78
2022-10-25T09:07:40.682Z,100276.88
2022-10-25T09:10:23.394Z,100274.25
2022-10-25T09:12:59.643Z,100289.84
2022-10-25T09:15:42.126Z,100282.06
2022-10-25T09:18:16.576Z,100286.47
2022-10-25T09:20:48.732Z,100288.19
2022-10-25T09:23:26.266Z,100281.25
2022-10-25T09:26:02.460Z,100291.69
2022-10-25T09:28:43.733Z,100292.53
2022-10-25T09:31:15.031Z,100293.38
2022-10-25T09:33:46.620Z,100290.78
2022-10-25T09:36:15.471Z,100292.50
2022-10-25T09:38:48.099Z,100289.88
2022-10-25T09:41:20.289Z,100282.91
2022-10-25T09:43:54.674Z,100293.34
2022-10-25T09:46:31.600Z,100288.13
2022-10-25T09:49:03.581Z,100289.00
2022-10-25T09:51:36.950Z,100286.28
2022-10-25T09:54:14.745Z,100282.59
2022-10-25T09:56:42.409Z,100290.41
2022-10-25T09:59:14.624Z,100287.81
2022-10-25T10:01:43.122Z,100290.44
2022-10-25T10:04:26.205Z,100291.41
2022-10-25T10:06:58.419Z,100290.63
2022-10-25T10:09:30.618Z,100289.75
2022-10-25T10:12:00.471Z,100295.06
2022-10-25T10:14:32.449Z,100292.41
2022-10-25T10:17:01.104Z,100286.31
2022-10-25T10:19:31.245Z,100290.75
2022-10-25T10:22:01.918Z,100279.47
2022-10-25T10:24:34.206Z,100282.97
2022-10-25T10:27:06.216Z,100284.69
2022-10-25T10:29:37.071Z,100281.16
2022-10-25T10:32:07.244Z,100275.06
2022-10-25T10:34:43.479Z,100273.31
2022-10-25T10:37:16.525Z,100267.97
2022-10-25T10:39:53.845Z,100262.75
2022-10-25T10:42:23.466Z,100270.47
2022-10-25T10:45:03.102Z,100261.59
2022-10-25T10:47:34.826Z,100263.34
2022-10-25T10:50:03.562Z,100256.31
2022-10-25T10:52:37.520Z,100261.31
2022-10-25T10:55:18.337Z,100253.81
2022-10-25T10:57:46.305Z,100259.16
2022-10-25T11:00:22.837Z,100250.84
2022-10-25T11:02:51.485Z,100248.25
2022-10-25T11:05:25.831Z,100255.03
2022-10-25T11:07:56.102Z,100253.81
2022-10-25T11:10:28.651Z,100249.91
2022-10-25T11:13:08.388Z,100250.31
2022-10-25T11:15:56.792Z,100255.66
2022-10-25T11:18:32.326Z,100252.25
2022-10-25T11:21:07.916Z,100256.81
2022-10-25T11:23:45.773Z,100240.44
2022-10-25T11:26:25.631Z,100244.94
2022-10-25T11:29:03.674Z,100242.19
2022-10-25T11:31:55.425Z,100244.22
2022-10-25T11:34:31.773Z,100244.50
2022-10-25T11:37:10.653Z,100251.44
2022-10-25T11:39:48.525Z,100256.97
2022-10-25T11:42:42.737Z,100256.72
2022-10-25T11:45:23.244Z,100261.97
2022-10-25T11:48:01.215Z,100254.59
2022-10-25T11:50:35.391Z,100249.28
2022-10-25T11:53:19.429Z,100248.22
2022-10-25T11:55:52.835Z,100239.88
2022-10-25T11:58:35.743Z,100235.41
2022-10-25T12:01:17.841Z,100243.41
2022-10-25T12:04:01.011Z,100240.41
2022-10-25T12:06:38.156Z,100231.81
2022-10-25T12:09:12.926Z,100232.78
2022-10-25T12:11:45.308Z,100236.50
2022-10-25T12:14:17.490Z,100239.22
2022-10-25T12:16:45.752Z,100233.78
2022-10-25T12:19:19.350Z,100231.63
2022-10-25T12:21:51.303Z,100236.16
2022-10-25T12:24:23.070Z,100228.63
2022-10-25T12:26:54.235Z,100230.72
2022-10-25T12:29:30.572Z,100220.28
2022-10-25T12:32:01.997Z,100225.78
2022-10-25T12:34:41.291Z,100216.88
2022-10-25T12:37:15.709Z,100212.97
2022-10-25T12:39:45.309Z,100215.13
2022-10-25T12:42:18.531Z,100203.63
2022-10-25T12:44:58.027Z,100204.84
2022-10-25T12:48:00.537Z,100195.63
2022-10-25T12:51:01.673Z,100197.41
2022-10-25T12:54:04.844Z,100201.03
2022-10-25T12:56:45.571Z,100201.50
2022-10-25T12:59:30.607Z,100196.84
2022-10-25T13:02:14.525Z,100189.47
2022-10-25T13:05:02.217Z,100189.63
2022-10-25T13:07:34.515Z,100185.41
2022-10-25T13:10:05.602Z,100185.94
2022-10-25T13:12:33.413Z,100194.22
2022-10-25T13:15:02.013Z,100193.88
2022-10-25T13:18:00.701Z,100185.34
2022-10-25T13:20:59.157Z,100189.25
2022-10-25T13:24:02.312Z,100182.41
2022-10-25T13:26:33.630Z,100184.38
2022-10-25T13:29:03.841Z,100186.28
2022-10-25T13:31:58.080Z,100175.06
2022-10-25T13:34:36.430Z,100177.94
2022-10-25T13:37:06.665Z,100166.56
2022-10-25T13:39:39.053Z,100165.34
2022-10-25T13:42:23.308Z,100160.06
2022-10-25T13:44:56.443Z,100160.81
2022-10-25T13:47:29.687Z,100164.16
2022-10-25T13:49:58.920Z,100156.81
2022-10-25T13:52:33.020Z,100150.41
2022-10-25T13:55:03.756Z,100163.34
2022-10-25T13:57:54.369Z,100156.63
2022-10-25T14:00:36.505Z,100161.34
2022-10-25T14:03:25.473Z,100166.81
2022-10-25T14:06:24.712Z,100157.44
2022-10-25T14:08:57.152Z,100156.50
2022-10-25T14:11:34.392Z,100153.94
2022-10-25T14:14:08.223Z,100146.09
2022-10-25T14:16:55.039Z,100139.06
2022-10-25T14:19:25.276Z,100138.69
2022-10-25T14:21:56.210Z,100143.88
2022-10-25T14:24:23.937Z,100140.91
2022-10-25T14:26:53.337Z,100138.13
2022-10-25T14:29:23.029Z,100134.72
2022-10-25T14:31:51.528Z,100137.81
2022-10-25T14:34:21.804Z,100139.19
2022-10-25T14:36:51.392Z,100132.19
2022-10-25T14:39:23.860Z,100135.59
2022-10-25T14:41:53.189Z,100134.56
2022-10-25T14:44:25.156Z,100134.31
2022-10-25T14:46:54.209Z,100126.47
2022-10-25T14:49:22.740Z,100120.44
2022-10-25T14:51:52.409Z,100121.59
2022-10-25T14:54:30.448Z,100113.50
2022-10-25T14:57:00.118Z,100110.53
2022-10-25T14:59:30.311Z,100104.84
2022-10-25T15:02:00.497Z,100107.69
2022-10-25T15:04:31.573Z,100105.38
2022-10-25T15:06:59.976Z,100109.25
2022-10-25T15:09:42.312Z,100095.09
2022-10-25T15:12:18.167Z,100104.44
2022-10-25T15:14:48.032Z,100096.25
2022-10-25T15:17:18.932Z,100104.28
2022-10-25T15:20:05.032Z,100100.63
2022-10-25T15:22:34.696Z,100102.56
2022-10-25T15:25:19.127Z,100101.44
2022-10-25T15:27:48.885Z,100108.06
2022-10-25T15:30:36.766Z,100101.69
2022-10-25T15:33:06.043Z,100111.22
2022-10-25T15:35:42.232Z,100112.69
2022-10-25T15:38:11.057Z,100110.78
2022-10-25T15:40:40.045Z,100113.50
2022-10-25T15:43:07.550Z,100109.72
2022-10-25T15:45:35.085Z,100103.38
2022-10-25T15:48:04.783Z,100104.66
2022-10-25T15:50:32.582Z,100099.66
2022-10-25T15:53:00.924Z,100097.44
2022-10-25T15:55:32.817Z,100100.34
2022-10-25T15:58:01.709Z,100098.00
2022-10-25T16:00:30.831Z,100101.19
2022-10-25T16:02:58.909Z,100102.16
2022-10-25T16:05:28.740Z,100098.06
2022-10-25T16:07:56.481Z,100100.84
2022-10-25T16:10:25.595Z,100100.13
2022-10-25T16:12:59.506Z,100108.19
2022-10-25T16:15:28.981Z,100101.28
2022-10-25T16:17:56.866Z,100107.50
2022-10-25T16:20:26.205Z,100096.28
2022-10-25T16:22:55.404Z,100096.34
2022-10-25T16:25:25.905Z,100096.41
2022-10-25T16:27:55.417Z,100102.47
2022-10-25T16:30:25.074Z,100097.28
2022-10-25T16:32:53.994Z,100085.16
2022-10-25T16:35:24.153Z,100094.69
2022-10-25T16:37:52.304Z,100094.69
2022-10-25T16:40:21.812Z,100096.41
2022-10-25T16:42:49.699Z,100099.00
2022-10-25T16:45:22.361Z,100092.00
2022-10-25T16:47:49.938Z,100085.06
2022-10-25T16:50:23.027Z,100084.97
2022-10-25T16:52:51.056Z,100080.63
2022-10-25T16:55:19.269Z,100072.81
2022-10-25T16:57:49.908Z,100079.69
2022-10-25T17:00:17.941Z,100079.63
2022-10-25T17:02:45.793Z,100084.81
2022-10-25T17:05:19.996Z,100080.47
2022-10-25T17:07:47.685Z,100087.34
2022-10-25T17:10:15.439Z,100087.31
2022-10-25T17:12:44.343Z,100086.34
2022-10-25T17:15:12.672Z,100081.91
2022-10-25T17:17:40.980Z,100074.09
2022-10-25T17:20:10.343Z,100070.59
2022-10-25T17:22:39.656Z,100073.19
2022-10-25T17:25:09.196Z,100074.00
2022-10-25T17:27:39.652Z,100080.91
2022-10-25T17:30:08.653Z,100084.31
2022-10-25T17:32:36.523Z,100079.03
2022-10-25T17:35:05.544Z,100091.09
2022-10-25T17:37:33.176Z,100078.09
2022-10-25T17:40:02.480Z,100079.78
2022-10-25T17:42:30.013Z,100078.81
2022-10-25T17:44:57.573Z,100073.63
2022-10-25T17:47:25.069Z,100077.09
2022-10-25T17:49:54.232Z,100086.59
2022-10-25T17:52:21.778Z,100073.63
2022-10-25T17:54:49.295Z,100084.75
2022-10-25T17:57:18.152Z,100075.25
2022-10-25T17:59:45.714Z,100072.75
2022-10-25T18:02:13.280Z,100077.00
2022-10-25T18:04:53.629Z,100076.94
2022-10-25T18:07:21.529Z,100072.56
2022-10-25T18:09:49.072Z,100079.44
2022-10-25T18:12:17.984Z,100088.91
2022-10-25T18:14:45.577Z,100089.69
2022-10-25T18:17:13.092Z,100088.75
2022-10-25T18:19:40.715Z,100084.38
2022-10-25T18:22:08.212Z,100084.28
2022-10-25T18:24:37.017Z,100077.19
2022-10-25T18:27:04.635Z,100090.97
2022-10-25T18:29:35.272Z,100086.63
2022-10-25T18:32:02.869Z,100084.88
2022-10-25T18:34:30.500Z,100090.00
2022-10-25T18:36:58.180Z,100089.06
2022-10-25T18:39:25.855Z,100090.78
2022-10-25T18:41:54.978Z,100093.31
2022-10-25T18:44:22.769Z,100083.75
2022-10-25T18:46:53.175Z,100082.84
2022-10-25T18:49:20.785Z,100087.13
2022-10-25T18:51:48.315Z,100082.69
2022-10-25T18:54:15.883Z,100075.72
2022-10-25T18:56:43.453Z,100080.03
2022-10-25T18:59:11.464Z,100078.28
2022-10-25T19:01:39.119Z,100075.63
2022-10-25T19:04:08.237Z,100072.09
2022-10-25T19:06:35.887Z,100064.28
2022-10-25T19:09:04.567Z,100061.66
2022-10-25T19:11:33.204Z,100053.88
2022-10-25T19:14:01.324Z,100055.59
2022-10-25T19:16:28.919Z,100061.63
2022-10-25T19:18:56.458Z,100052.91
2022-10-25T19:21:25.302Z,100049.44
2022-10-25T19:23:54.107Z,100044.16
2022-10-25T19:26:23.041Z,100051.03
2022-10-25T19:28:56.619Z,100047.50
2022-10-25T19:31:24.581Z,100049.25
2022-10-25T19:33:52.812Z,100044.09
2022-10-25T19:36:21.491Z,100044.06
2022-10-25T19:38:50.439Z,100042.34
2022-10-25T19:41:19.999Z,100041.38
2022-10-25T19:43:48.029Z,100039.63
2022-10-25T19:46:16.180Z,100042.16
2022-10-25T19:48:43.740Z,100044.72
2022-10-25T19:51:13.194Z,100043.81
2022-10-25T19:53:41.040Z,100047.22
2022-10-25T19:56:12.853Z,100047.22
2022-10-25T19:58:40.908Z,100041.97
2022-10-25T20:01:11.349Z,100041.97
2022-10-25T20:03:39.998Z,100038.50
2022-10-25T20:06:09.729Z,100032.44
2022-10-25T20:08:39.128Z,100033.34
2022-10-25T20:11:07.460Z,100024.69
2022-10-25T20:13:36.672Z,100031.56
2022-10-25T20:16:05.153Z,100024.66
2022-10-25T20:18:34.916Z,100020.28
2022-10-25T20:21:05.935Z,100029.69
2022-10-25T20:23:33.596Z,100027.94
2022-10-25T20:26:10.892Z,100022.69
2022-10-25T20:28:39.782Z,100018.38
2022-10-25T20:31:07.667Z,100015.75
2022-10-25T20:33:35.221Z,100019.16
2022-10-25T20:36:03.862Z,100014.00
2022-10-25T20:38:32.197Z,100009.72
2022-10-25T20:41:03.804Z,100010.72
2022-10-25T20:43:31.386Z,100009.00
2022-10-25T20:46:00.928Z,100004.72
2022-10-25T20:48:28.569Z,100004.72
2022-10-25T20:50:56.264Z,100005.66
2022-10-25T20:53:24.440Z,99999.63
2022-10-25T20:55:51.940Z,99995.31
2022-10-25T20:58:21.124Z,99991.84
2022-10-25T21:00:49.363Z,99995.31
2022-10-25T21:03:18.241Z,99991.00
2022-10-25T21:05:45.788Z,99990.16
2022-10-25T21:08:13.644Z,99985.91
2022-10-25T21:10:41.612Z,99986.78
2022-10-25T21:13:09.989Z,99991.88
2022-10-25T21:15:37.671Z,99991.94
2022-10-25T21:18:05.340Z,99997.19
2022-10-25T21:20:34.216Z,99996.41
2022-10-25T21:23:01.712Z,100002.44
2022-10-25T21:25:29.425Z,99998.13
2022-10-25T21:27:57.904Z,99997.34
2022-10-25T21:30:25.467Z,100000.81
2022-10-25T21:32:53.065Z,99995.69
2022-10-25T21:35:21.074Z,99991.47
2022-10-25T21:37:50.469Z,99988.94
2022-10-25T21:40:19.468Z,99974.34
2022-10-25T21:42:47.147Z,99965.78
2022-10-25T21:45:14.660Z,99952.03
2022-10-25T21:47:42.173Z,99945.97
2022-10-25T21:50:10.513Z,99951.09
2022-10-25T21:52:38.093Z,99959.69
2022-10-25T21:55:08.095Z,99959.69
2022-10-25T21:57:36.204Z,99959.69
2022-10-25T22:00:04.596Z,99955.34
2022-10-25T22:02:40.564Z,99945.09
2022-10-25T22:05:08.904Z,99939.03
2022-10-25T22:07:36.441Z,99937.28
2022-10-25T22:10:04.164Z,99932.06
2022-10-25T22:12:33.014Z,99938.00
2022-10-25T22:15:00.538Z,99951.88
2022-10-25T22:17:28.048Z,99949.28
2022-10-25T22:19:55.553Z,99943.25
2022-10-25T22:22:23.072Z,99940.69
2022-10-25T22:24:50.587Z,99942.41
2022-10-25T22:27:18.156Z,99954.50
2022-10-25T22:29:47.024Z,99938.16
2022-10-25T22:32:14.534Z,99939.09
2022-10-25T22:34:42.621Z,99933.94
2022-10-25T22:37:10.130Z,99935.72
2022-10-25T22:39:37.700Z,99941.72
2022-10-25T22:42:11.461Z,99936.56
2022-10-25T22:44:39.382Z,99940.94
2022-10-25T22:47:08.244Z,99934.03
2022-10-25T22:49:35.792Z,99935.72
2022-10-25T22:52:03.346Z,99942.63
2022-10-25T22:54:30.877Z,99942.59
2022-10-25T22:56:58.487Z,99940.88
2022-10-25T22:59:26.005Z,99923.66
2022-10-25T23:01:53.819Z,99916.75
2022-10-25T23:04:22.797Z,99913.25
2022-10-25T23:06:50.376Z,99899.41
2022-10-25T23:09:17.943Z,99898.56
2022-10-25T23:11:45.901Z,99892.56
2022-10-25T23:14:16.607Z,99894.22
2022-10-25T23:16:45.431Z,99899.44
2022-10-25T23:19:12.957Z,99914.13
2022-10-25T23:21:41.878Z,99908.13
2022-10-25T23:24:10.303Z,99908.13
2022-10-25T23:26:37.946Z,99901.25
2022-10-25T23:29:05.689Z,99906.47
2022-10-25T23:31:33.564Z,99909.00
2022-10-25T23:34:01.813Z,99906.53
2022-10-25T23:36:36.960Z,99915.16
2022-10-25T23:39:07.112Z,99904.88
2022-10-25T23:41:34.649Z,99906.59
2022-10-25T23:44:02.317Z,99910.91
2022-10-25T23:46:29.841Z,99911.81
2022-10-25T23:48:57.661Z,99918.78
2022-10-25T23:51:25.238Z,99916.19
2022-10-25T23:53:52.769Z,99922.25
2022-10-25T23:56:21.650Z,99921.38
2022-10-25T23:58:53.164Z,99930.91
